createdAt,value
2022-12-31T00:04:10.265Z,12.48
2022-12-31T00:09:11.779Z,12.61
2022-12-31T00:14:13.104Z,12.55
2022-12-31T00:19:14.584Z,12.50
2022-12-31T00:24:15.923Z,12.50
2022-12-31T00:29:17.398Z,12.52
2022-12-31T00:34:18.756Z,12.47
2022-12-31T00:39:20.297Z,12.53
2022-12-31T00:44:21.635Z,12.56
2022-12-31T00:49:23.136Z,12.60
2022-12-31T00:54:24.470Z,12.70
2022-12-31T00:59:25.977Z,12.79
2022-12-31T01:04:27.299Z,12.92
2022-12-31T01:09:28.791Z,13.00
2022-12-31T01:14:32.604Z,12.88
2022-12-31T01:19:34.009Z,12.98
2022-12-31T01:24:35.368Z,12.88
2022-12-31T01:29:36.699Z,12.87
2022-12-31T01:34:38.004Z,12.75
2022-12-31T01:39:39.324Z,12.85
2022-12-31T01:44:40.711Z,12.89
2022-12-31T01:49:48.320Z,12.84
2022-12-31T01:54:52.136Z,12.83
2022-12-31T01:59:54.959Z,12.84
2022-12-31T02:04:58.277Z,13.02
2022-12-31T02:10:00.008Z,12.93
2022-12-31T02:15:02.149Z,13.00
2022-12-31T02:20:21.996Z,13.31
2022-12-31T02:25:41.701Z,14.71
2022-12-31T02:30:45.527Z,15.11
2022-12-31T02:35:58.413Z,14.85
2022-12-31T02:41:00.443Z,14.99
2022-12-31T02:46:04.967Z,14.86
2022-12-31T02:51:09.394Z,14.68
2022-12-31T02:56:18.632Z,14.81
2022-12-31T03:01:42.821Z,14.68
2022-12-31T03:06:44.443Z,14.87
2022-12-31T03:12:04.765Z,14.92
2022-12-31T03:17:06.247Z,14.86
2022-12-31T03:22:26.540Z,15.00
2022-12-31T03:27:27.866Z,15.23
2022-12-31T03:32:29.417Z,15.17
2022-12-31T03:37:30.848Z,15.14
2022-12-31T03:42:32.150Z,15.26
2022-12-31T03:47:33.487Z,15.00
2022-12-31T03:52:35.030Z,14.97
2022-12-31T03:57:36.481Z,14.94
2022-12-31T04:02:38.176Z,14.99
2022-12-31T04:07:39.922Z,15.02
2022-12-31T04:12:41.320Z,14.99
2022-12-31T04:17:42.657Z,15.16
2022-12-31T04:22:44.255Z,15.20
2022-12-31T04:27:45.712Z,15.25
2022-12-31T04:32:47.113Z,15.29
2022-12-31T04:37:48.443Z,15.24
2022-12-31T04:42:49.735Z,15.28
2022-12-31T04:47:51.295Z,15.37
2022-12-31T04:52:52.623Z,15.65
2022-12-31T04:57:54.181Z,15.50
2022-12-31T05:02:55.606Z,15.43
2022-12-31T05:07:56.965Z,15.53
2022-12-31T05:12:58.325Z,15.55
2022-12-31T05:17:59.767Z,15.47
2022-12-31T05:23:01.387Z,15.58
2022-12-31T05:28:02.735Z,15.40
2022-12-31T05:33:04.570Z,15.43
2022-12-31T05:38:05.895Z,15.63
2022-12-31T05:43:07.361Z,15.55
2022-12-31T05:48:08.674Z,15.56
2022-12-31T05:53:10.234Z,15.85
2022-12-31T05:58:11.539Z,15.66
2022-12-31T06:03:13.043Z,15.50
2022-12-31T06:08:14.808Z,15.39
2022-12-31T06:13:16.118Z,15.57
2022-12-31T06:18:17.639Z,15.99
2022-12-31T06:23:18.975Z,15.86
2022-12-31T06:28:20.769Z,15.73
2022-12-31T06:33:22.166Z,15.88
2022-12-31T06:38:24.900Z,16.11
2022-12-31T06:43:26.523Z,16.06
2022-12-31T06:48:27.862Z,15.99
2022-12-31T06:53:29.170Z,16.01
2022-12-31T06:58:30.728Z,16.10
2022-12-31T07:03:38.181Z,16.08
2022-12-31T07:08:45.693Z,16.29
2022-12-31T07:14:06.893Z,16.27
2022-12-31T07:19:09.464Z,16.13
2022-12-31T07:24:11.659Z,16.21
2022-12-31T07:29:16.168Z,16.22
2022-12-31T07:34:17.507Z,16.28
2022-12-31T07:39:41.522Z,16.19
2022-12-31T07:44:42.832Z,16.08
2022-12-31T07:49:44.651Z,16.22
2022-12-31T07:54:46.102Z,16.19
2022-12-31T07:59:47.703Z,16.31
2022-12-31T08:04:56.463Z,16.49
2022-12-31T08:10:14.013Z,16.60
2022-12-31T08:15:20.053Z,16.36
2022-12-31T08:20:23.374Z,16.51
2022-12-31T08:25:35.271Z,16.49
2022-12-31T08:30:55.113Z,16.52
2022-12-31T08:35:59.618Z,16.39
2022-12-31T08:41:10.021Z,16.47
2022-12-31T08:46:17.154Z,16.46
2022-12-31T08:51:22.770Z,16.44
2022-12-31T08:56:29.132Z,16.37
2022-12-31T09:01:34.959Z,16.55
2022-12-31T09:06:41.496Z,16.49
2022-12-31T09:11:48.623Z,16.49
2022-12-31T09:17:09.010Z,16.42
2022-12-31T09:22:10.505Z,16.58
2022-12-31T09:27:27.416Z,16.58
2022-12-31T09:32:29.228Z,16.69
2022-12-31T09:37:41.515Z,17.02
2022-12-31T09:42:59.831Z,17.43
2022-12-31T09:48:28.708Z,17.55
2022-12-31T09:53:39.193Z,17.57
2022-12-31T09:59:03.394Z,17.68
2022-12-31T10:04:23.384Z,17.73
2022-12-31T10:09:24.765Z,17.58
2022-12-31T10:14:32.254Z,17.69
2022-12-31T10:19:36.614Z,17.75
2022-12-31T10:25:00.624Z,17.58
2022-12-31T10:30:04.997Z,17.52
2022-12-31T10:35:12.573Z,17.42
2022-12-31T10:40:13.939Z,17.51
2022-12-31T10:45:33.923Z,17.47
2022-12-31T10:50:41.515Z,17.46
2022-12-31T10:55:45.818Z,17.41
2022-12-31T11:00:51.059Z,17.57
2022-12-31T11:06:11.264Z,17.62
2022-12-31T11:11:32.677Z,17.71
2022-12-31T11:16:34.104Z,17.83
2022-12-31T11:21:41.334Z,17.97
2022-12-31T11:26:49.385Z,17.87
2022-12-31T11:32:05.824Z,17.75
2022-12-31T11:37:25.959Z,17.76
2022-12-31T11:42:27.280Z,18.05
2022-12-31T11:48:28.387Z,18.53
2022-12-31T11:53:30.949Z,18.50
2022-12-31T11:58:32.359Z,18.14
2022-12-31T12:03:38.521Z,18.29
2022-12-31T12:08:40.587Z,18.48
2022-12-31T12:13:41.946Z,18.82
2022-12-31T12:18:48.201Z,19.55
2022-12-31T12:23:58.535Z,19.72
2022-12-31T12:29:00.459Z,19.98
2022-12-31T12:34:01.763Z,20.15
2022-12-31T12:39:06.702Z,20.38
2022-12-31T12:44:14.135Z,20.35
2022-12-31T12:49:38.690Z,20.02
2022-12-31T12:54:55.748Z,19.79
2022-12-31T13:00:06.342Z,19.37
2022-12-31T13:05:26.015Z,19.43
2022-12-31T13:10:47.952Z,19.13
2022-12-31T13:15:57.005Z,19.26
2022-12-31T13:21:07.575Z,19.05
2022-12-31T13:26:24.867Z,19.29
2022-12-31T13:31:35.335Z,19.62
2022-12-31T13:36:39.610Z,19.85
2022-12-31T13:41:48.959Z,19.56
2022-12-31T13:46:50.246Z,19.74
2022-12-31T13:51:56.087Z,19.03
2022-12-31T13:57:01.854Z,18.70
2022-12-31T14:02:15.287Z,18.67
2022-12-31T14:07:32.544Z,18.49
2022-12-31T14:12:53.959Z,18.38
2022-12-31T14:18:10.476Z,17.96
2022-12-31T14:23:11.790Z,17.63
2022-12-31T14:28:33.361Z,17.39
2022-12-31T14:33:42.987Z,17.18
2022-12-31T14:38:47.302Z,17.05
2022-12-31T14:44:01.206Z,17.00
2022-12-31T14:49:12.767Z,16.89
2022-12-31T14:54:35.343Z,16.82
2022-12-31T14:59:40.399Z,16.75
2022-12-31T15:04:43.695Z,16.70
2022-12-31T15:09:45.088Z,16.55
2022-12-31T15:14:56.195Z,16.38
2022-12-31T15:19:57.485Z,16.07
2022-12-31T15:25:00.938Z,15.95
2022-12-31T15:30:02.970Z,15.80
2022-12-31T15:35:23.983Z,15.72
2022-12-31T15:40:25.401Z,15.57
2022-12-31T15:45:36.348Z,15.32
2022-12-31T15:50:39.222Z,15.29
2022-12-31T15:55:46.158Z,15.27
2022-12-31T16:01:06.146Z,15.19
2022-12-31T16:06:12.278Z,15.12
2022-12-31T16:11:14.727Z,15.11
2022-12-31T16:16:27.516Z,15.09
2022-12-31T16:21:28.841Z,14.96
2022-12-31T16:26:32.534Z,14.80
2022-12-31T16:31:33.924Z,14.71
2022-12-31T16:36:35.496Z,14.56
2022-12-31T16:41:43.453Z,14.45
2022-12-31T16:46:45.282Z,14.27
2022-12-31T16:51:47.186Z,14.24
2022-12-31T16:56:48.862Z,14.27
2022-12-31T17:01:50.914Z,14.27
2022-12-31T17:06:52.426Z,14.30
2022-12-31T17:11:54.777Z,14.30
2022-12-31T17:17:03.577Z,14.45
2022-12-31T17:22:08.239Z,14.23
2022-12-31T17:27:10.299Z,14.25
2022-12-31T17:32:17.676Z,14.26
2022-12-31T17:37:29.785Z,14.22
2022-12-31T17:42:36.914Z,14.29
2022-12-31T17:47:40.426Z,14.34
2022-12-31T17:52:41.735Z,14.27
2022-12-31T17:57:51.565Z,14.26
2022-12-31T18:02:52.938Z,14.21
2022-12-31T18:07:54.403Z,14.08
2022-12-31T18:12:55.880Z,14.02
2022-12-31T18:17:57.190Z,14.12
2022-12-31T18:22:58.752Z,14.13
2022-12-31T18:28:00.162Z,14.07
2022-12-31T18:33:01.503Z,14.04
2022-12-31T18:38:02.959Z,13.97
2022-12-31T18:43:05.324Z,13.92
2022-12-31T18:48:06.772Z,13.90
2022-12-31T18:53:13.572Z,13.72
2022-12-31T18:58:15.140Z,13.74
2022-12-31T19:03:19.221Z,13.78
2022-12-31T19:08:21.322Z,13.75
2022-12-31T19:13:23.307Z,13.77
2022-12-31T19:18:24.708Z,13.73
2022-12-31T19:23:26.027Z,13.90
2022-12-31T19:28:27.815Z,13.75
2022-12-31T19:33:29.143Z,13.63
2022-12-31T19:38:32.106Z,13.78
2022-12-31T19:43:33.461Z,13.83
2022-12-31T19:48:34.803Z,13.94
2022-12-31T19:53:36.162Z,13.80
2022-12-31T19:58:37.486Z,13.65
2022-12-31T20:03:38.836Z,13.59
2022-12-31T20:08:43.285Z,13.47
2022-12-31T20:13:45.815Z,13.47
2022-12-31T20:18:47.755Z,13.44
2022-12-31T20:23:49.975Z,13.45
2022-12-31T20:28:52.144Z,13.45
2022-12-31T20:33:56.803Z,13.48
2022-12-31T20:38:58.583Z,13.61
2022-12-31T20:44:00.350Z,13.75
2022-12-31T20:49:02.354Z,13.81
2022-12-31T20:54:08.893Z,13.90
2022-12-31T20:59:10.453Z,13.83
2022-12-31T21:04:11.880Z,13.83
2022-12-31T21:09:13.956Z,13.83
2022-12-31T21:14:15.405Z,13.78
2022-12-31T21:19:16.778Z,13.70
2022-12-31T21:24:23.584Z,13.60
2022-12-31T21:29:27.847Z,13.60
2022-12-31T21:34:32.702Z,13.50
2022-12-31T21:39:34.028Z,13.49
2022-12-31T21:44:35.363Z,13.42
2022-12-31T21:49:36.673Z,13.44
2022-12-31T21:54:58.292Z,13.48
2022-12-31T22:00:40.937Z,13.52
2022-12-31T22:05:44.908Z,13.44
2022-12-31T22:10:52.084Z,13.39
2022-12-31T22:16:00.283Z,13.31
2022-12-31T22:21:10.806Z,13.37
2022-12-31T22:26:17.793Z,13.33
2022-12-31T22:31:20.710Z,13.30
2022-12-31T22:36:22.723Z,13.13
2022-12-31T22:41:24.816Z,13.10
2022-12-31T22:46:27.389Z,13.14
2022-12-31T22:51:57.162Z,13.12
2022-12-31T22:56:50.977Z,13.02
2022-12-31T23:01:52.321Z,13.06
2022-12-31T23:06:53.636Z,13.06
2022-12-31T23:11:55.045Z,13.26
2022-12-31T23:17:30.965Z,13.17
2022-12-31T23:22:51.754Z,13.08
2022-12-31T23:27:53.080Z,12.93
2022-12-31T23:32:54.421Z,12.86
2022-12-31T23:37:55.792Z,12.87
2022-12-31T23:42:58.193Z,12.83
2022-12-31T23:47:59.550Z,12.77
2022-12-31T23:53:00.852Z,12.58
2022-12-31T23:58:02.190Z,12.41
